createdAt,value
2016-08-19T00:00:24.788Z,0
2016-08-19T00:01:24.810Z,0
2016-08-19T00:02:24.847Z,0
2016-08-19T00:03:25.580Z,0
2016-08-19T00:04:25.600Z,0
2016-08-19T00:05:24.219Z,0
2016-08-19T00:06:24.943Z,0
2016-08-19T00:07:24.262Z,0
2016-08-19T00:08:25.001Z,0
2016-08-19T00:09:24.315Z,0
2016-08-19T00:10:24.347Z,0
2016-08-19T00:11:24.366Z,0
2016-08-19T00:12:25.820Z,0
2016-08-19T00:13:25.858Z,0
2016-08-19T00:14:26.615Z,0
2016-08-19T00:15:27.309Z,0
2016-08-19T00:16:28.075Z,0
2016-08-19T00:17:25.373Z,0
2016-08-19T00:18:24.578Z,0
2016-08-19T00:19:25.328Z,0
2016-08-19T00:20:26.254Z,0
2016-08-19T00:21:26.230Z,0
2016-08-19T00:22:25.603Z,0
2016-08-19T00:23:26.299Z,0
2016-08-19T00:24:25.625Z,0
2016-08-19T00:25:26.224Z,0
2016-08-19T00:26:26.215Z,0
2016-08-19T00:27:24.982Z,0
2016-08-19T00:28:25.766Z,0
2016-08-19T00:29:25.823Z,0
2016-08-19T00:30:25.047Z,0
2016-08-19T00:31:25.696Z,0
2016-08-19T00:32:25.737Z,0
2016-08-19T00:33:24.960Z,0
2016-08-19T00:34:25.209Z,0
2016-08-19T00:35:26.539Z,0
2016-08-19T00:36:25.819Z,0
2016-08-19T00:37:25.797Z,0
2016-08-19T00:38:25.167Z,0
2016-08-19T00:39:25.237Z,0
2016-08-19T00:40:26.080Z,0
2016-08-19T00:41:27.403Z,0
2016-08-19T00:42:25.222Z,0
2016-08-19T00:43:25.238Z,0
2016-08-19T00:44:25.275Z,0
2016-08-19T00:45:26.792Z,0
2016-08-19T00:46:26.738Z,0
2016-08-19T00:47:25.374Z,0
2016-08-19T00:48:25.352Z,0
2016-08-19T00:49:25.416Z,0
2016-08-19T00:50:25.598Z,0
2016-08-19T00:51:26.214Z,0
2016-08-19T00:52:25.445Z,0
2016-08-19T00:53:26.203Z,0
2016-08-19T00:54:25.510Z,0
2016-08-19T00:55:26.949Z,0
2016-08-19T00:56:26.369Z,0
2016-08-19T00:57:27.049Z,0
2016-08-19T00:58:26.344Z,0
2016-08-19T00:59:25.639Z,0
2016-08-19T01:00:26.379Z,0
2016-08-19T01:01:27.141Z,0
2016-08-19T01:02:27.173Z,0
2016-08-19T01:03:25.041Z,0
2016-08-19T01:04:26.466Z,0
2016-08-19T01:05:25.783Z,0
2016-08-19T01:06:27.941Z,0
2016-08-19T01:07:27.980Z,0
2016-08-19T01:08:27.288Z,0
2016-08-19T01:09:26.594Z,0
2016-08-19T01:10:25.916Z,0
2016-08-19T01:11:25.961Z,0
2016-08-19T01:12:26.682Z,0
2016-08-19T01:13:25.292Z,0
2016-08-19T01:14:27.451Z,0
2016-08-19T01:15:27.464Z,0
2016-08-19T01:16:26.811Z,0
2016-08-19T01:17:26.122Z,0
2016-08-19T01:18:26.130Z,0
2016-08-19T01:19:26.149Z,0
2016-08-19T01:20:26.883Z,0
2016-08-19T01:21:27.617Z,0
2016-08-19T01:22:26.224Z,0
2016-08-19T01:23:26.962Z,0
2016-08-19T01:24:28.419Z,0
2016-08-19T01:25:27.023Z,0
2016-08-19T01:26:27.041Z,0
2016-08-19T01:27:27.778Z,0
2016-08-19T01:28:27.093Z,0
2016-08-19T01:29:26.402Z,0
2016-08-19T01:30:27.347Z,0
2016-08-19T01:31:26.476Z,0
2016-08-19T01:32:27.943Z,0
2016-08-19T01:33:27.223Z,0
2016-08-19T01:34:26.546Z,0
2016-08-19T01:35:27.273Z,0
2016-08-19T01:36:25.888Z,0
2016-08-19T01:37:27.331Z,0
2016-08-19T01:38:26.656Z,0
2016-08-19T01:39:28.099Z,0
2016-08-19T01:40:26.694Z,0
2016-08-19T01:41:27.441Z,0
2016-08-19T01:42:27.468Z,0
2016-08-19T01:43:26.066Z,0
2016-08-19T01:44:26.089Z,0
2016-08-19T01:45:26.116Z,0
2016-08-19T01:46:26.844Z,0
2016-08-19T01:47:28.314Z,0
2016-08-19T01:48:27.619Z,0
2016-08-19T01:49:27.659Z,0
2016-08-19T01:50:28.381Z,0
2016-08-19T01:51:27.687Z,0
2016-08-19T01:52:26.298Z,0
2016-08-19T01:53:27.028Z,0
2016-08-19T01:54:27.773Z,0
2016-08-19T01:55:27.795Z,0
2016-08-19T01:56:27.833Z,0
2016-08-19T01:57:27.848Z,0
2016-08-19T01:58:27.869Z,0
2016-08-19T01:59:28.614Z,0
2016-08-19T02:00:27.924Z,0
2016-08-19T02:01:27.965Z,0
2016-08-19T02:02:27.974Z,0
2016-08-19T02:03:28.743Z,0
2016-08-19T02:04:28.051Z,0
2016-08-19T02:05:29.472Z,0
2016-08-19T02:06:28.798Z,0
2016-08-19T02:07:28.106Z,0
2016-08-19T02:08:27.440Z,0
2016-08-19T02:09:27.453Z,0
2016-08-19T02:10:29.602Z,0
2016-08-19T02:11:27.499Z,0
2016-08-19T02:12:28.956Z,0
2016-08-19T02:13:26.841Z,0
2016-08-19T02:14:27.585Z,0
2016-08-19T02:15:28.308Z,0
2016-08-19T02:16:29.052Z,0
2016-08-19T02:17:29.091Z,0
2016-08-19T02:18:28.396Z,0
2016-08-19T02:19:29.127Z,0
2016-08-19T02:20:29.167Z,0
2016-08-19T02:21:27.771Z,0
2016-08-19T02:22:27.786Z,0
2016-08-19T02:23:29.230Z,0
2016-08-19T02:24:28.545Z,0
2016-08-19T02:25:28.570Z,0
2016-08-19T02:26:28.601Z,0
2016-08-19T02:27:29.332Z,0
2016-08-19T02:28:28.678Z,0
2016-08-19T02:29:27.263Z,0
2016-08-19T02:30:28.703Z,0
2016-08-19T02:31:29.432Z,0
2016-08-19T02:32:28.745Z,0
2016-08-19T02:33:28.790Z,0
2016-08-19T02:34:28.095Z,0
2016-08-19T02:35:27.409Z,0
2016-08-19T02:36:28.856Z,0
2016-08-19T02:37:29.606Z,0
2016-08-19T02:38:28.913Z,0
2016-08-19T02:39:28.217Z,0
2016-08-19T02:40:28.249Z,0
2016-08-19T02:41:28.986Z,0
2016-08-19T02:42:28.315Z,0
2016-08-19T02:43:29.745Z,0
2016-08-19T02:44:28.352Z,0
2016-08-19T02:45:29.088Z,0
2016-08-19T02:46:28.401Z,0
2016-08-19T02:47:29.140Z,0
2016-08-19T02:48:27.747Z,0
2016-08-19T02:49:27.773Z,0
2016-08-19T02:50:29.246Z,0
2016-08-19T02:51:29.258Z,0
2016-08-19T02:52:28.559Z,0
2016-08-19T02:53:30.012Z,0
2016-08-19T02:54:29.322Z,0
2016-08-19T02:55:30.771Z,0
2016-08-19T02:56:27.955Z,0
2016-08-19T02:57:28.700Z,0
2016-08-19T02:58:30.179Z,0
2016-08-19T02:59:28.741Z,0
2016-08-19T03:00:30.189Z,0
2016-08-19T03:01:30.220Z,0
2016-08-19T03:02:30.236Z,0
2016-08-19T03:03:28.864Z,0
2016-08-19T03:04:28.868Z,0
2016-08-19T03:05:28.205Z,0
2016-08-19T03:06:28.206Z,0
2016-08-19T03:07:29.672Z,0
2016-08-19T03:08:28.984Z,0
2016-08-19T03:09:28.998Z,0
2016-08-19T03:10:29.744Z,0
2016-08-19T03:11:29.761Z,0
2016-08-19T03:12:30.496Z,0
2016-08-19T03:13:28.395Z,0
2016-08-19T03:14:29.836Z,0
2016-08-19T03:15:29.881Z,0
2016-08-19T03:16:29.893Z,0
2016-08-19T03:17:30.630Z,0
2016-08-19T03:18:29.952Z,0
2016-08-19T03:19:29.969Z,0
2016-08-19T03:20:29.295Z,0
2016-08-19T03:21:30.765Z,0
2016-08-19T03:22:30.046Z,0
2016-08-19T03:23:30.103Z,0
2016-08-19T03:24:30.104Z,0
2016-08-19T03:25:29.427Z,0
2016-08-19T03:26:30.154Z,0
2016-08-19T03:27:30.887Z,0
2016-08-19T03:28:29.496Z,0
2016-08-19T03:29:30.230Z,0
2016-08-19T03:30:30.264Z,0
2016-08-19T03:31:29.571Z,0
2016-08-19T03:32:31.016Z,0
2016-08-19T03:33:29.645Z,0
2016-08-19T03:34:31.068Z,0
2016-08-19T03:35:31.096Z,0
2016-08-19T03:36:30.414Z,0
2016-08-19T03:37:30.439Z,0
2016-08-19T03:38:30.482Z,0
2016-08-19T03:39:31.206Z,0
2016-08-19T03:40:31.224Z,0
2016-08-19T03:41:29.863Z,0
2016-08-19T03:42:31.279Z,0
2016-08-19T03:43:29.892Z,0
2016-08-19T03:44:30.624Z,0
2016-08-19T03:45:29.933Z,0
2016-08-19T03:46:30.705Z,0
2016-08-19T03:47:31.410Z,0
2016-08-19T03:48:30.726Z,0
2016-08-19T03:49:31.459Z,0
2016-08-19T03:50:29.363Z,0
2016-08-19T03:51:30.098Z,0
2016-08-19T03:52:30.833Z,0
2016-08-19T03:53:29.431Z,0
2016-08-19T03:54:30.171Z,0
2016-08-19T03:55:30.932Z,0
2016-08-19T03:56:30.929Z,0
2016-08-19T03:57:30.256Z,0
2016-08-19T03:58:30.999Z,0
2016-08-19T03:59:31.018Z,0
2016-08-19T04:00:30.326Z,0
2016-08-19T04:01:30.348Z,0
2016-08-19T04:02:31.112Z,0
2016-08-19T04:03:30.413Z,0
2016-08-19T04:04:32.557Z,0
2016-08-19T04:05:30.467Z,0
2016-08-19T04:06:30.506Z,0
2016-08-19T04:07:30.514Z,0
2016-08-19T04:08:31.244Z,0
2016-08-19T04:09:29.849Z,0
2016-08-19T04:10:30.586Z,0
2016-08-19T04:11:31.337Z,0
2016-08-19T04:12:32.066Z,0
2016-08-19T04:13:32.089Z,0
2016-08-19T04:14:31.401Z,0
2016-08-19T04:15:31.425Z,0
2016-08-19T04:16:30.740Z,0
2016-08-19T04:17:32.196Z,0
2016-08-19T04:18:31.522Z,0
2016-08-19T04:19:30.136Z,0
2016-08-19T04:20:30.159Z,0
2016-08-19T04:21:30.888Z,0
2016-08-19T04:22:30.894Z,0
2016-08-19T04:23:32.363Z,0
2016-08-19T04:24:31.669Z,0
2016-08-19T04:25:31.694Z,0
2016-08-19T04:26:32.443Z,0
2016-08-19T04:27:32.454Z,0
2016-08-19T04:28:31.800Z,0
2016-08-19T04:29:31.795Z,0
2016-08-19T04:30:31.818Z,0
2016-08-19T04:31:31.149Z,0
2016-08-19T04:32:31.868Z,0
2016-08-19T04:33:32.604Z,0
2016-08-19T04:34:30.508Z,0
2016-08-19T04:35:32.655Z,0
2016-08-19T04:36:31.985Z,0
2016-08-19T04:37:32.710Z,0
2016-08-19T04:38:31.327Z,0
2016-08-19T04:39:32.775Z,0
2016-08-19T04:40:31.362Z,0
2016-08-19T04:41:32.125Z,0
2016-08-19T04:42:30.719Z,0
2016-08-19T04:43:32.151Z,0
2016-08-19T04:44:32.909Z,0
2016-08-19T04:45:30.799Z,0
2016-08-19T04:46:32.240Z,0
2016-08-19T04:47:32.968Z,0
2016-08-19T04:48:32.281Z,0
2016-08-19T04:49:32.309Z,0
2016-08-19T04:50:31.630Z,0
2016-08-19T04:51:32.366Z,0
2016-08-19T04:52:33.100Z,0
2016-08-19T04:53:31.702Z,0
2016-08-19T04:54:33.150Z,0
2016-08-19T04:55:31.759Z,0
2016-08-19T04:56:33.215Z,0
2016-08-19T04:57:33.251Z,0
2016-08-19T04:58:31.833Z,0
2016-08-19T04:59:32.569Z,0
2016-08-19T05:00:32.599Z,0
2016-08-19T05:01:32.622Z,0
2016-08-19T05:02:33.359Z,0
2016-08-19T05:03:33.388Z,0
2016-08-19T05:04:31.286Z,0
2016-08-19T05:05:32.726Z,0
2016-08-19T05:06:32.048Z,0
2016-08-19T05:07:32.785Z,0
2016-08-19T05:08:32.096Z,0
2016-08-19T05:09:33.540Z,0
2016-08-19T05:10:33.572Z,0
2016-08-19T05:11:33.588Z,0
2016-08-19T05:12:32.195Z,0
2016-08-19T05:13:32.937Z,0
2016-08-19T05:14:32.280Z,0
2016-08-19T05:15:33.008Z,0
2016-08-19T05:16:33.005Z,0
2016-08-19T05:17:32.322Z,0
2016-08-19T05:18:32.349Z,0
2016-08-19T05:19:31.663Z,0
2016-08-19T05:20:33.122Z,0
2016-08-19T05:21:33.136Z,0
2016-08-19T05:22:33.165Z,0
2016-08-19T05:23:32.481Z,0
2016-08-19T05:24:32.502Z,0
2016-08-19T05:25:33.237Z,0
2016-08-19T05:26:33.263Z,0
2016-08-19T05:27:33.277Z,0
2016-08-19T05:28:33.313Z,0
2016-08-19T05:29:33.363Z,0
2016-08-19T05:30:33.381Z,0
2016-08-19T05:31:33.386Z,0
2016-08-19T05:32:34.127Z,0
2016-08-19T05:33:33.436Z,0
2016-08-19T05:34:32.045Z,0
2016-08-19T05:35:32.070Z,0
2016-08-19T05:36:32.801Z,0
2016-08-19T05:37:33.565Z,0
2016-08-19T05:38:33.572Z,0
2016-08-19T05:39:33.590Z,0
2016-08-19T05:40:32.915Z,0
2016-08-19T05:41:32.930Z,0
2016-08-19T05:42:33.668Z,0
2016-08-19T05:43:34.420Z,0
2016-08-19T05:44:32.298Z,0
2016-08-19T05:45:34.550Z,0
2016-08-19T05:46:33.791Z,0
2016-08-19T05:47:33.811Z,0
2016-08-19T05:48:33.117Z,0
2016-08-19T05:49:33.129Z,0
2016-08-19T05:50:33.869Z,0
2016-08-19T05:51:32.475Z,0
2016-08-19T05:52:33.214Z,0
2016-08-19T05:53:33.943Z,0
2016-08-19T05:54:33.974Z,0
2016-08-19T05:55:34.028Z,0
2016-08-19T05:56:32.605Z,0
2016-08-19T05:57:34.757Z,0
2016-08-19T05:58:33.371Z,0
2016-08-19T05:59:32.672Z,0
2016-08-19T06:00:32.713Z,0
2016-08-19T06:01:34.155Z,0
2016-08-19T06:02:34.170Z,0
2016-08-19T06:03:33.488Z,0
2016-08-19T06:04:34.933Z,0
2016-08-19T06:05:33.535Z,0
2016-08-19T06:06:35.704Z,0
2016-08-19T06:07:34.294Z,0
2016-08-19T06:08:34.319Z,0
2016-08-19T06:09:33.648Z,0
2016-08-19T06:10:33.662Z,0
2016-08-19T06:11:32.978Z,0
2016-08-19T06:12:34.418Z,0
2016-08-19T06:13:34.449Z,0
2016-08-19T06:14:33.762Z,0
2016-08-19T06:15:35.226Z,0
2016-08-19T06:16:35.241Z,0
2016-08-19T06:17:33.849Z,0
2016-08-19T06:18:33.909Z,0
2016-08-19T06:19:35.332Z,0
2016-08-19T06:20:34.620Z,0
2016-08-19T06:21:35.362Z,0
2016-08-19T06:22:33.256Z,0
2016-08-19T06:23:35.443Z,0
2016-08-19T06:24:34.017Z,0
2016-08-19T06:25:35.483Z,0
2016-08-19T06:26:35.485Z,0
2016-08-19T06:27:35.521Z,0
2016-08-19T06:28:35.549Z,0
2016-08-19T06:29:34.141Z,0
2016-08-19T06:30:33.454Z,0
2016-08-19T06:31:34.195Z,0
2016-08-19T06:32:34.217Z,0
2016-08-19T06:33:34.962Z,0
2016-08-19T06:34:35.021Z,0
2016-08-19T06:35:34.324Z,0
2016-08-19T06:36:34.317Z,0
2016-08-19T06:37:34.348Z,0
2016-08-19T06:38:35.082Z,0
2016-08-19T06:39:34.394Z,0
2016-08-19T06:40:34.426Z,0
2016-08-19T06:41:35.180Z,0
2016-08-19T06:42:35.332Z,0
2016-08-19T06:43:33.807Z,0
2016-08-19T06:44:34.523Z,0
2016-08-19T06:45:34.543Z,0
2016-08-19T06:46:34.574Z,0
2016-08-19T06:47:36.018Z,0
2016-08-19T06:48:35.345Z,0
2016-08-19T06:49:35.397Z,0
2016-08-19T06:50:33.974Z,0
2016-08-19T06:51:36.119Z,0
2016-08-19T06:52:35.434Z,0
2016-08-19T06:53:36.165Z,0
2016-08-19T06:54:36.193Z,0
2016-08-19T06:55:35.508Z,0
2016-08-19T06:56:34.823Z,0
2016-08-19T06:57:35.586Z,0
2016-08-19T06:58:35.605Z,0
2016-08-19T06:59:37.033Z,0
2016-08-19T07:00:35.637Z,0
2016-08-19T07:01:34.950Z,0
2016-08-19T07:02:36.410Z,0
2016-08-19T07:03:36.435Z,0
2016-08-19T07:04:35.737Z,0
2016-08-19T07:05:35.759Z,0
2016-08-19T07:06:35.076Z,0
2016-08-19T07:07:34.397Z,0
2016-08-19T07:08:37.256Z,0
2016-08-19T07:09:35.158Z,0
2016-08-19T07:10:35.887Z,0
2016-08-19T07:11:37.341Z,0
2016-08-19T07:12:35.222Z,0
2016-08-19T07:13:35.966Z,0
2016-08-19T07:14:35.589Z,0
2016-08-19T07:15:36.010Z,0
2016-08-19T07:16:35.344Z,0
2016-08-19T07:17:36.066Z,0
2016-08-19T07:18:36.083Z,0
2016-08-19T07:19:34.708Z,0
2016-08-19T07:20:34.723Z,0
2016-08-19T07:21:35.472Z,0
2016-08-19T07:22:35.498Z,0
2016-08-19T07:23:36.219Z,0
2016-08-19T07:24:34.814Z,0
2016-08-19T07:25:35.561Z,0
2016-08-19T07:26:37.001Z,0
2016-08-19T07:27:35.604Z,0
2016-08-19T07:28:37.174Z,0
2016-08-19T07:29:37.076Z,0
2016-08-19T07:30:35.705Z,0
2016-08-19T07:31:37.125Z,0
2016-08-19T07:32:37.157Z,0
2016-08-19T07:33:36.496Z,0
2016-08-19T07:34:35.787Z,0
2016-08-19T07:35:37.239Z,0
2016-08-19T07:36:35.835Z,0
2016-08-19T07:37:37.275Z,0
2016-08-19T07:38:36.595Z,0
2016-08-19T07:39:37.351Z,0
2016-08-19T07:40:38.071Z,0
2016-08-19T07:41:36.671Z,0
2016-08-19T07:42:36.703Z,0
2016-08-19T07:43:36.744Z,0
2016-08-19T07:44:37.456Z,0
2016-08-19T07:45:36.065Z,0
2016-08-19T07:46:36.088Z,0
2016-08-19T07:47:36.821Z,0
2016-08-19T07:48:36.850Z,0
2016-08-19T07:49:37.586Z,0
2016-08-19T07:50:37.607Z,0
2016-08-19T07:51:36.925Z,0
2016-08-19T07:52:36.244Z,0
2016-08-19T07:53:37.683Z,0
2016-08-19T07:54:36.293Z,0
2016-08-19T07:55:37.024Z,0
2016-08-19T07:56:37.049Z,0
2016-08-19T07:57:38.517Z,0
2016-08-19T07:58:36.401Z,0
2016-08-19T07:59:37.134Z,0
2016-08-19T08:00:36.455Z,0
2016-08-19T08:01:37.901Z,0
2016-08-19T08:02:36.500Z,0
2016-08-19T08:03:37.953Z,0
2016-08-19T08:04:37.257Z,0
2016-08-19T08:05:37.284Z,0
2016-08-19T08:06:36.598Z,0
2016-08-19T08:07:37.337Z,0
2016-08-19T08:08:36.679Z,0
2016-08-19T08:09:35.964Z,0
2016-08-19T08:10:36.714Z,0
2016-08-19T08:11:36.019Z,5
2016-08-19T08:12:37.457Z,0
2016-08-19T08:13:37.492Z,0
2016-08-19T08:14:37.511Z,0
2016-08-19T08:15:37.546Z,0
2016-08-19T08:16:36.865Z,0
2016-08-19T08:17:37.587Z,0
2016-08-19T08:18:38.343Z,0
2016-08-19T08:19:36.220Z,0
2016-08-19T08:20:37.668Z,0
2016-08-19T08:21:38.403Z,0
2016-08-19T08:22:37.733Z,0
2016-08-19T08:23:38.453Z,0
2016-08-19T08:24:37.770Z,0
2016-08-19T08:25:37.799Z,5
2016-08-19T08:26:37.821Z,5
2016-08-19T08:27:38.555Z,0
2016-08-19T08:28:36.471Z,0
2016-08-19T08:29:36.489Z,0
2016-08-19T08:30:38.660Z,0
2016-08-19T08:31:37.969Z,0
2016-08-19T08:32:37.280Z,0
2016-08-19T08:33:38.005Z,0
2016-08-19T08:34:38.744Z,0
2016-08-19T08:35:38.058Z,0
2016-08-19T08:36:36.667Z,0
2016-08-19T08:37:38.108Z,5
2016-08-19T08:38:38.168Z,5
2016-08-19T08:39:38.186Z,5
2016-08-19T08:40:36.767Z,5
2016-08-19T08:41:38.210Z,5
2016-08-19T08:42:38.240Z,5
2016-08-19T08:43:37.551Z,5
2016-08-19T08:44:38.293Z,5
2016-08-19T08:45:38.338Z,5
2016-08-19T08:46:37.629Z,5
2016-08-19T08:47:39.084Z,5
2016-08-19T08:48:38.399Z,5
2016-08-19T08:49:37.718Z,5
2016-08-19T08:50:37.737Z,5
2016-08-19T08:51:39.912Z,5
2016-08-19T08:52:39.212Z,5
2016-08-19T08:53:39.262Z,5
2016-08-19T08:54:37.839Z,0
2016-08-19T08:55:39.305Z,0
2016-08-19T08:56:37.201Z,5
2016-08-19T08:57:37.220Z,5
2016-08-19T08:58:37.943Z,5
2016-08-19T08:59:39.399Z,10
2016-08-19T09:00:38.001Z,10
2016-08-19T09:01:38.029Z,10
2016-08-19T09:02:38.054Z,10
2016-08-19T09:03:38.100Z,10
2016-08-19T09:04:38.823Z,20
2016-08-19T09:05:37.421Z,20
2016-08-19T09:06:38.866Z,20
2016-08-19T09:07:39.610Z,10
2016-08-19T09:08:38.922Z,20
2016-08-19T09:09:38.941Z,10
2016-08-19T09:10:39.695Z,10
2016-08-19T09:11:38.994Z,5
2016-08-19T09:12:39.748Z,5
2016-08-19T09:13:39.766Z,5
2016-08-19T09:14:39.071Z,5
2016-08-19T09:15:39.104Z,5
2016-08-19T09:16:39.132Z,5
2016-08-19T09:17:39.155Z,5
2016-08-19T09:18:37.767Z,5
2016-08-19T09:19:38.493Z,5
2016-08-19T09:20:40.657Z,5
2016-08-19T09:21:39.272Z,5
2016-08-19T09:22:37.885Z,10
2016-08-19T09:23:38.608Z,15
2016-08-19T09:24:40.762Z,10
2016-08-19T09:25:40.124Z,10
2016-08-19T09:26:39.406Z,20
2016-08-19T09:27:54.312Z,20
2016-08-19T09:28:40.160Z,10
2016-08-19T09:29:38.788Z,10
2016-08-19T09:30:39.506Z,5
2016-08-19T09:31:39.528Z,5
2016-08-19T09:32:38.867Z,5
2016-08-19T09:33:39.586Z,5
2016-08-19T09:34:40.332Z,5
2016-08-19T09:35:40.352Z,5
2016-08-19T09:36:38.948Z,5
2016-08-19T09:37:40.401Z,5
2016-08-19T09:38:39.010Z,5
2016-08-19T09:39:38.328Z,5
2016-08-19T09:40:39.773Z,5
2016-08-19T09:41:39.086Z,5
2016-08-19T09:42:38.402Z,5
2016-08-19T09:43:39.144Z,5
2016-08-19T09:44:39.912Z,5
2016-08-19T09:45:38.493Z,5
2016-08-19T09:46:39.936Z,5
2016-08-19T09:47:39.252Z,5
2016-08-19T09:48:39.990Z,10
2016-08-19T09:49:39.318Z,10
2016-08-19T09:50:38.624Z,10
2016-08-19T09:51:40.076Z,10
2016-08-19T09:52:40.823Z,10
2016-08-19T09:53:40.833Z,10
2016-08-19T09:54:40.154Z,10
2016-08-19T09:55:40.178Z,10
2016-08-19T09:56:40.917Z,10
2016-08-19T09:57:39.538Z,10
2016-08-19T09:58:40.275Z,10
2016-08-19T09:59:38.867Z,10
2016-08-19T10:00:39.637Z,10
2016-08-19T10:01:41.755Z,10
2016-08-19T10:02:40.367Z,10
2016-08-19T10:03:39.683Z,5
2016-08-19T10:04:41.140Z,5
2016-08-19T10:05:41.161Z,5
2016-08-19T10:06:40.491Z,10
2016-08-19T10:07:41.211Z,10
2016-08-19T10:08:39.128Z,10
2016-08-19T10:09:41.284Z,10
2016-08-19T10:10:41.299Z,5
2016-08-19T10:11:39.897Z,5
2016-08-19T10:12:41.362Z,5
2016-08-19T10:13:39.953Z,5
2016-08-19T10:14:41.417Z,5
2016-08-19T10:15:40.011Z,5
2016-08-19T10:16:41.460Z,5
2016-08-19T10:17:40.791Z,5
2016-08-19T10:18:40.089Z,5
2016-08-19T10:19:41.538Z,5
2016-08-19T10:20:40.858Z,10
2016-08-19T10:21:40.904Z,10
2016-08-19T10:22:39.492Z,10
2016-08-19T10:23:40.943Z,10
2016-08-19T10:24:40.269Z,10
2016-08-19T10:25:40.999Z,10
2016-08-19T10:26:41.021Z,10
2016-08-19T10:27:41.767Z,10
2016-08-19T10:28:41.795Z,10
2016-08-19T10:29:41.113Z,10
2016-08-19T10:30:40.421Z,10
2016-08-19T10:31:39.738Z,10
2016-08-19T10:32:41.190Z,10
2016-08-19T10:33:42.635Z,10
2016-08-19T10:34:40.528Z,15
2016-08-19T10:35:41.978Z,20
2016-08-19T10:36:40.583Z,20
2016-08-19T10:37:41.327Z,20
2016-08-19T10:38:39.930Z,20
2016-08-19T10:39:41.387Z,25
2016-08-19T10:40:42.122Z,35
2016-08-19T10:41:40.739Z,35
2016-08-19T10:42:42.185Z,30
2016-08-19T10:43:40.795Z,20
2016-08-19T10:44:40.808Z,20
2016-08-19T10:45:40.852Z,20
2016-08-19T10:46:40.865Z,20
2016-08-19T10:47:41.653Z,5
2016-08-19T10:48:41.636Z,5
2016-08-19T10:49:41.657Z,20
2016-08-19T10:50:40.978Z,15
2016-08-19T10:51:41.009Z,15
2016-08-19T10:52:41.032Z,15
2016-08-19T10:53:41.069Z,20
2016-08-19T10:54:40.392Z,15
2016-08-19T10:55:41.869Z,5
2016-08-19T10:56:41.153Z,5
2016-08-19T10:57:41.903Z,5
2016-08-19T10:58:41.207Z,10
2016-08-19T10:59:41.950Z,15
2016-08-19T11:00:41.977Z,10
2016-08-19T11:01:42.724Z,20
2016-08-19T11:02:42.779Z,20
2016-08-19T11:03:42.061Z,20
2016-08-19T11:04:41.400Z,15
2016-08-19T11:05:42.112Z,15
2016-08-19T11:06:41.459Z,5
2016-08-19T11:07:42.174Z,5
2016-08-19T11:08:42.200Z,15
2016-08-19T11:09:41.522Z,20
2016-08-19T11:10:42.275Z,20
2016-08-19T11:11:42.302Z,20
2016-08-19T11:12:42.324Z,15
2016-08-19T11:13:42.345Z,15
2016-08-19T11:14:42.378Z,15
2016-08-19T11:15:43.315Z,15
2016-08-19T11:16:41.723Z,15
2016-08-19T11:17:43.179Z,15
2016-08-19T11:18:43.209Z,20
2016-08-19T11:19:43.230Z,20
2016-08-19T11:20:41.878Z,15
2016-08-19T11:21:43.311Z,15
2016-08-19T11:22:41.198Z,15
2016-08-19T11:23:42.638Z,15
2016-08-19T11:24:41.249Z,10
2016-08-19T11:25:41.988Z,15
2016-08-19T11:26:41.305Z,15
2016-08-19T11:27:42.754Z,15
2016-08-19T11:28:42.828Z,5
2016-08-19T11:29:43.526Z,10
2016-08-19T11:30:42.130Z,15
2016-08-19T11:31:42.872Z,15
2016-08-19T11:32:42.189Z,10
2016-08-19T11:33:42.223Z,10
2016-08-19T11:34:43.679Z,10
2016-08-19T11:35:41.569Z,15
2016-08-19T11:36:43.731Z,15
2016-08-19T11:37:41.633Z,20
2016-08-19T11:38:43.074Z,15
2016-08-19T11:39:44.530Z,15
2016-08-19T11:40:43.842Z,15
2016-08-19T11:41:43.173Z,5
2016-08-19T11:42:42.483Z,5
2016-08-19T11:43:42.515Z,5
2016-08-19T11:44:43.270Z,10
2016-08-19T11:45:43.297Z,5
2016-08-19T11:46:44.032Z,5
2016-08-19T11:47:42.631Z,5
2016-08-19T11:48:44.083Z,5
2016-08-19T11:49:41.987Z,10
2016-08-19T11:50:43.435Z,15
2016-08-19T11:51:44.178Z,20
2016-08-19T11:52:44.227Z,20
2016-08-19T11:53:44.239Z,20
2016-08-19T11:54:42.852Z,20
2016-08-19T11:55:43.584Z,15
2016-08-19T11:56:45.047Z,15
2016-08-19T11:57:43.641Z,15
2016-08-19T11:58:44.393Z,20
2016-08-19T11:59:43.014Z,15
2016-08-19T12:00:42.318Z,15
2016-08-19T12:01:43.052Z,15
2016-08-19T12:02:43.789Z,15
2016-08-19T12:03:45.254Z,15
2016-08-19T12:04:43.143Z,20
2016-08-19T12:05:43.882Z,15
2016-08-19T12:06:43.203Z,15
2016-08-19T12:07:43.958Z,15
2016-08-19T12:08:43.258Z,15
2016-08-19T12:09:44.004Z,15
2016-08-19T12:10:43.326Z,15
2016-08-19T12:11:44.776Z,15
2016-08-19T12:12:44.804Z,15
2016-08-19T12:13:44.130Z,15
2016-08-19T12:14:43.449Z,15
2016-08-19T12:15:44.193Z,15
2016-08-19T12:16:44.927Z,15
2016-08-19T12:17:43.545Z,5
2016-08-19T12:18:44.987Z,5
2016-08-19T12:19:44.303Z,5
2016-08-19T12:20:43.631Z,15
2016-08-19T12:21:44.368Z,5
2016-08-19T12:22:44.395Z,5
2016-08-19T12:23:43.718Z,5
2016-08-19T12:24:44.456Z,5
2016-08-19T12:25:44.675Z,5
2016-08-19T12:26:43.808Z,5
2016-08-19T12:27:43.860Z,5
2016-08-19T12:28:44.578Z,5
2016-08-19T12:29:44.612Z,5
2016-08-19T12:30:43.222Z,10
2016-08-19T12:31:44.665Z,15
2016-08-19T12:32:43.986Z,20
2016-08-19T12:33:45.466Z,15
2016-08-19T12:34:44.063Z,15
2016-08-19T12:35:44.787Z,15
2016-08-19T12:36:44.823Z,20
2016-08-19T12:37:45.562Z,20
2016-08-19T12:38:44.883Z,15
2016-08-19T12:39:44.199Z,15
2016-08-19T12:40:44.229Z,15
2016-08-19T12:41:44.262Z,15
2016-08-19T12:42:45.008Z,15
2016-08-19T12:43:45.145Z,15
2016-08-19T12:44:45.077Z,15
2016-08-19T12:45:45.129Z,15
2016-08-19T12:46:45.148Z,15
2016-08-19T12:47:44.451Z,15
2016-08-19T12:48:45.196Z,15
2016-08-19T12:49:45.927Z,15
2016-08-19T12:50:45.275Z,15
2016-08-19T12:51:45.289Z,15
2016-08-19T12:52:44.601Z,15
2016-08-19T12:53:45.343Z,15
2016-08-19T12:54:44.657Z,15
2016-08-19T12:55:44.690Z,5
2016-08-19T12:56:44.014Z,5
2016-08-19T12:57:45.484Z,5
2016-08-19T12:58:46.921Z,10
2016-08-19T12:59:44.819Z,15
2016-08-19T13:00:46.500Z,15
2016-08-19T13:01:45.584Z,10
2016-08-19T13:03:01.041Z,5
2016-08-19T13:03:44.970Z,5
2016-08-19T13:04:45.681Z,5
2016-08-19T13:05:45.711Z,0
2016-08-19T13:06:47.160Z,5
2016-08-19T13:07:45.773Z,10
2016-08-19T13:08:45.095Z,5
2016-08-19T13:09:45.836Z,15
2016-08-19T13:10:45.868Z,15
2016-08-19T13:11:45.895Z,15
2016-08-19T13:12:45.937Z,15
2016-08-19T13:13:45.247Z,15
2016-08-19T13:14:46.011Z,15
2016-08-19T13:15:45.312Z,15
2016-08-19T13:16:46.050Z,15
2016-08-19T13:17:46.789Z,15
2016-08-19T13:18:45.405Z,15
2016-08-19T13:19:46.848Z,15
2016-08-19T13:20:46.186Z,15
2016-08-19T13:21:46.220Z,15
2016-08-19T13:22:46.936Z,15
2016-08-19T13:23:47.719Z,15
2016-08-19T13:24:47.018Z,10
2016-08-19T13:25:46.325Z,10
2016-08-19T13:26:45.651Z,10
2016-08-19T13:27:46.385Z,10
2016-08-19T13:28:45.715Z,10
2016-08-19T13:29:45.741Z,10
2016-08-19T13:30:47.202Z,10
2016-08-19T13:31:46.539Z,15
2016-08-19T13:32:46.546Z,15
2016-08-19T13:33:47.294Z,5
2016-08-19T13:34:47.314Z,10
2016-08-19T13:35:47.357Z,10
2016-08-19T13:36:47.390Z,5
2016-08-19T13:37:47.451Z,5
2016-08-19T13:38:46.736Z,5
2016-08-19T13:39:46.764Z,5
2016-08-19T13:40:46.817Z,5
2016-08-19T13:41:46.115Z,5
2016-08-19T13:42:47.561Z,5
2016-08-19T13:43:46.911Z,5
2016-08-19T13:44:46.914Z,10
2016-08-19T13:45:46.242Z,15
2016-08-19T13:46:46.270Z,15
2016-08-19T13:47:47.003Z,15
2016-08-19T13:48:47.030Z,5
2016-08-19T13:49:47.070Z,5
2016-08-19T13:50:47.818Z,10
2016-08-19T13:51:45.711Z,10
2016-08-19T13:52:47.158Z,10
2016-08-19T13:53:47.919Z,10
2016-08-19T13:54:45.809Z,10
2016-08-19T13:56:01.447Z,10
2016-08-19T13:56:47.989Z,10
2016-08-19T13:57:47.335Z,10
2016-08-19T13:58:46.642Z,10
2016-08-19T13:59:47.389Z,5
2016-08-19T14:00:46.713Z,5
2016-08-19T14:01:47.436Z,5
2016-08-19T14:02:48.179Z,5
2016-08-19T14:03:46.814Z,10
2016-08-19T14:04:46.821Z,10
2016-08-19T14:05:48.282Z,10
2016-08-19T14:06:46.878Z,10
2016-08-19T14:07:46.928Z,10
2016-08-19T14:08:46.950Z,10
2016-08-19T14:09:46.285Z,10
2016-08-19T14:10:47.796Z,10
2016-08-19T14:11:47.759Z,10
2016-08-19T14:12:48.494Z,10
2016-08-19T14:13:48.532Z,5
2016-08-19T14:14:46.413Z,10
2016-08-19T14:15:49.292Z,10
2016-08-19T14:16:47.190Z,10
2016-08-19T14:17:47.220Z,10
2016-08-19T14:18:48.688Z,0
2016-08-19T14:19:47.299Z,5
2016-08-19T14:20:47.314Z,5
2016-08-19T14:21:48.769Z,0
2016-08-19T14:22:48.106Z,0
2016-08-19T14:23:48.113Z,0
2016-08-19T14:24:49.576Z,0
2016-08-19T14:25:47.468Z,0
2016-08-19T14:26:48.210Z,0
2016-08-19T14:27:48.961Z,5
2016-08-19T14:28:49.694Z,5
2016-08-19T14:29:49.012Z,5
2016-08-19T14:30:47.630Z,5
2016-08-19T14:31:49.073Z,5
2016-08-19T14:32:48.397Z,5
2016-08-19T14:33:47.713Z,5
2016-08-19T14:34:47.742Z,5
2016-08-19T14:35:49.204Z,5
2016-08-19T14:36:47.804Z,5
2016-08-19T14:37:49.265Z,5
2016-08-19T14:38:47.159Z,5